Time;durP1;ratioP1;P1;durP2;ratioP2;P2;SDS_P1;SDS_P2;PMS_P1;PMS_P2;Temp;Humidity;BMP_temperature;BMP_pressure;BME280_temperature;BME280_humidity;BME280_pressure;Samples;Min_cycle;Max_cycle;Signal;HPM_P1;HPM_P2
2023/05/12 00:02:02;;;;;;;11.10;5.60;;;;;;;9.40;100.00;101817.25;4979244;28;20061;-74
2023/05/12 00:04:48;;;;;;;12.63;5.00;;;;;;;9.40;100.00;101814.59;4978619;28;20056;-75
2023/05/12 00:07:33;;;;;;;9.38;4.63;;;;;;;9.40;100.00;101814.59;4977756;28;20084;-75
2023/05/12 00:10:17;;;;;;;11.65;5.07;;;;;;;9.43;100.00;101808.38;4977140;28;20045;-75
2023/05/12 00:13:02;;;;;;;9.57;4.25;;;;;;;9.42;100.00;101810.13;4978803;28;20068;-75
2023/05/12 00:15:46;;;;;;;10.20;4.32;;;;;;;9.43;100.00;101796.00;4978988;28;20045;-75
2023/05/12 00:18:30;;;;;;;11.05;5.20;;;;;;;9.42;100.00;101802.22;4975174;28;20057;-75
2023/05/12 00:21:14;;;;;;;10.77;5.00;;;;;;;9.44;100.00;101807.47;4982038;28;20052;-75
2023/05/12 00:23:58;;;;;;;10.90;4.55;;;;;;;9.41;100.00;101802.28;4978025;28;20061;-76
2023/05/12 00:26:42;;;;;;;9.13;4.63;;;;;;;9.44;100.00;101791.59;4978154;28;20204;-75
2023/05/12 00:29:26;;;;;;;7.72;3.95;;;;;;;9.45;100.00;101790.69;4976455;28;20119;-75
2023/05/12 00:32:10;;;;;;;7.22;3.50;;;;;;;9.43;100.00;101792.53;4976947;28;20077;-75
2023/05/12 00:34:55;;;;;;;5.55;3.13;;;;;;;9.42;100.00;101788.16;4976823;28;20072;-75
2023/05/12 00:37:40;;;;;;;6.20;3.03;;;;;;;9.41;100.00;101791.69;4984591;28;20096;-76
2023/05/12 00:40:24;;;;;;;5.00;3.25;;;;;;;9.41;100.00;101783.78;4982564;28;22015;-75
2023/05/12 00:43:08;;;;;;;4.35;2.55;;;;;;;9.41;100.00;101778.50;4981283;28;20068;-75
2023/05/12 00:45:53;;;;;;;6.82;2.97;;;;;;;9.43;100.00;101781.94;4980170;28;20073;-75
2023/05/12 00:48:37;;;;;;;5.47;2.97;;;;;;;9.43;100.00;101784.59;4980784;28;20131;-76
2023/05/12 00:51:21;;;;;;;4.50;2.75;;;;;;;9.42;100.00;101777.56;4980655;28;20073;-75
2023/05/12 00:54:08;;;;;;;6.05;2.78;;;;;;;9.43;100.00;101784.59;4978873;28;20077;-75
2023/05/12 00:56:52;;;;;;;6.38;2.97;;;;;;;9.44;100.00;101786.31;4971726;28;20167;-75
2023/05/12 00:59:37;;;;;;;6.82;3.25;;;;;;;9.46;100.00;101787.13;4971866;28;20091;-76
2023/05/12 01:02:24;;;;;;;4.80;2.97;;;;;;;9.45;100.00;101775.72;4981012;28;20101;-74
2023/05/12 01:05:09;;;;;;;5.82;3.58;;;;;;;9.46;100.00;101779.22;4980361;28;20546;-76
2023/05/12 01:07:54;;;;;;;6.78;4.13;;;;;;;9.46;100.00;101781.84;4979903;28;20100;-75
2023/05/12 01:10:45;;;;;;;10.30;4.82;;;;;;;9.43;100.00;101771.38;4984672;28;20081;-74
2023/05/12 01:13:30;;;;;;;11.25;5.20;;;;;;;9.45;100.00;101774.84;4990204;28;21100;-76
2023/05/12 01:16:15;;;;;;;10.75;5.35;;;;;;;9.48;100.00;101774.78;4979950;28;20112;-76
2023/05/12 01:19:04;;;;;;;12.35;5.35;;;;;;;9.49;100.00;101772.06;4979112;28;20061;-76
2023/05/12 01:21:48;;;;;;;13.50;6.43;;;;;;;9.50;100.00;101768.50;4978916;28;20041;-76
2023/05/12 01:24:37;;;;;;;11.90;6.28;;;;;;;9.50;100.00;101768.50;4979788;28;20638;-76
2023/05/12 01:27:22;;;;;;;10.23;5.35;;;;;;;9.53;100.00;101761.44;4981175;28;20049;-77
2023/05/12 01:30:07;;;;;;;11.82;6.25;;;;;;;9.53;100.00;101757.00;4978834;28;20057;-75
2023/05/12 01:32:51;;;;;;;14.27;6.43;;;;;;;9.53;100.00;101753.50;4978658;28;20614;-76
2023/05/12 01:35:36;;;;;;;18.92;7.75;;;;;;;9.54;100.00;101763.16;4977742;28;20433;-76
2023/05/12 01:38:20;;;;;;;14.63;6.45;;;;;;;9.56;100.00;101767.50;4978706;28;20176;-77
2023/05/12 01:41:04;;;;;;;14.80;7.85;;;;;;;9.55;100.00;101764.88;4965488;28;20052;-76
2023/05/12 01:43:48;;;;;;;19.92;9.07;;;;;;;9.56;100.00;101769.25;4979508;28;20413;-77
2023/05/12 01:46:32;;;;;;;16.83;7.97;;;;;;;9.56;100.00;101762.22;4978431;28;20527;-76
2023/05/12 01:49:19;;;;;;;15.35;7.93;;;;;;;9.56;100.00;101762.22;4977490;28;20045;-76
2023/05/12 01:52:04;;;;;;;22.38;9.27;;;;;;;9.55;100.00;101768.41;4976820;28;20057;-76
2023/05/12 01:54:50;;;;;;;20.63;8.77;;;;;;;9.55;100.00;101771.06;4977085;28;20072;-79
2023/05/12 01:57:34;;;;;;;19.58;9.73;;;;;;;9.54;100.00;101771.97;4978720;28;20598;-76
2023/05/12 02:00:18;;;;;;;20.15;9.32;;;;;;;9.56;100.00;101770.16;4977325;28;20467;-76
2023/05/12 02:03:02;;;;;;;23.08;9.77;;;;;;;9.56;100.00;101767.50;4978670;28;20076;-77
2023/05/12 02:05:46;;;;;;;21.55;9.82;;;;;;;9.56;100.00;101771.91;4979844;28;20052;-76
2023/05/12 02:08:30;;;;;;;25.15;9.82;;;;;;;9.59;100.00;101774.50;4978118;28;20116;-76
2023/05/12 02:11:14;;;;;;;26.13;10.60;;;;;;;9.60;100.00;101774.44;4978808;28;20876;-77
2023/05/12 02:13:59;;;;;;;26.42;10.57;;;;;;;9.61;100.00;101778.84;4976335;28;20052;-76
2023/05/12 02:16:43;;;;;;;23.38;10.40;;;;;;;9.63;100.00;101778.78;4978678;28;20103;-76
2023/05/12 02:19:27;;;;;;;27.73;10.30;;;;;;;9.62;100.00;101772.63;4983683;28;20524;-75
2023/05/12 02:22:11;;;;;;;24.50;10.50;;;;;;;9.65;100.00;101771.69;4978537;28;20132;-75
2023/05/12 02:24:55;;;;;;;23.70;10.35;;;;;;;9.64;100.00;101769.91;4979295;28;20053;-76
2023/05/12 02:27:39;;;;;;;26.83;10.57;;;;;;;9.64;100.00;101776.09;4979522;28;20053;-76
2023/05/12 02:30:23;;;;;;;21.00;9.75;;;;;;;9.67;100.00;101779.56;4982813;28;20046;-76
2023/05/12 02:33:07;;;;;;;20.95;9.13;;;;;;;9.68;100.00;101771.59;4979687;28;20045;-77
2023/05/12 02:35:51;;;;;;;22.75;9.82;;;;;;;9.70;100.00;101774.19;4980722;28;20064;-76
2023/05/12 02:38:36;;;;;;;22.75;9.32;;;;;;;9.72;100.00;101782.94;4980158;28;20048;-75
2023/05/12 02:41:19;;;;;;;25.10;10.48;;;;;;;9.73;100.00;101776.75;4980002;28;20175;-76
2023/05/12 02:44:04;;;;;;;28.77;11.23;;;;;;;9.74;100.00;101781.13;4979257;28;20196;-76
2023/05/12 02:46:48;;;;;;;25.70;11.10;;;;;;;9.76;100.00;101777.53;4978345;28;20576;-75
2023/05/12 02:49:33;;;;;;;30.23;11.48;;;;;;;9.78;100.00;101781.03;4978699;28;20133;-75
2023/05/12 02:52:16;;;;;;;31.10;11.88;;;;;;;9.79;100.00;101776.59;4977729;28;20137;-75
2023/05/12 02:55:01;;;;;;;33.38;12.00;;;;;;;9.81;100.00;101774.75;4978708;28;20136;-75
2023/05/12 02:57:45;;;;;;;32.50;11.85;;;;;;;9.83;100.00;101778.25;4978421;28;20053;-76
2023/05/12 03:00:29;;;;;;;32.03;12.60;;;;;;;9.85;100.00;101776.41;4991187;28;20076;-77
2023/05/12 03:03:13;;;;;;;33.33;12.52;;;;;;;9.85;100.00;101784.34;4978194;28;20062;-76
2023/05/12 03:05:58;;;;;;;31.55;13.30;;;;;;;9.87;100.00;101787.81;4979256;28;21993;-76
2023/05/12 03:08:42;;;;;;;32.53;12.40;;;;;;;9.92;100.00;101791.22;4977934;28;20065;-76
2023/05/12 03:11:26;;;;;;;35.85;13.25;;;;;;;9.95;100.00;101782.31;4979604;28;20053;-76
2023/05/12 03:14:11;;;;;;;34.53;12.25;;;;;;;9.98;100.00;101774.28;4979746;28;20073;-77
2023/05/12 03:16:55;;;;;;;36.05;13.88;;;;;;;10.03;100.00;101777.69;4979013;28;21581;-76
2023/05/12 03:19:39;;;;;;;34.03;13.43;;;;;;;10.01;100.00;101768.06;4978036;28;20057;-76
2023/05/12 03:22:23;;;;;;;33.05;13.63;;;;;;;10.04;100.00;101767.97;4992227;28;20072;-76
2023/05/12 03:25:11;;;;;;;38.08;13.57;;;;;;;10.05;100.00;101775.00;4978161;28;20536;-76
2023/05/12 03:27:56;;;;;;;37.05;13.13;;;;;;;10.08;100.00;101774.91;4976382;28;20108;-77
2023/05/12 03:30:40;;;;;;;33.15;13.15;;;;;;;10.11;100.00;101779.25;4977649;28;20077;-76
2023/05/12 03:33:24;;;;;;;29.48;12.90;;;;;;;10.14;100.00;101777.38;4978485;28;20079;-78
2023/05/12 03:36:09;;;;;;;39.05;13.95;;;;;;;10.20;100.00;101784.28;4978134;28;20511;-76
2023/05/12 03:38:53;;;;;;;38.40;13.55;;;;;;;10.23;100.00;101772.75;4978691;28;20122;-77
2023/05/12 03:41:37;;;;;;;36.45;13.65;;;;;;;10.28;100.00;101770.81;4992489;28;20052;-78
2023/05/12 03:44:21;;;;;;;35.92;13.32;;;;;;;10.32;100.00;101769.81;4965395;28;20045;-77
2023/05/12 03:47:06;;;;;;;34.95;14.60;;;;;;;10.37;100.00;101767.03;4976407;28;20073;-77
2023/05/12 03:49:50;;;;;;;38.83;14.73;;;;;;;10.39;100.00;101776.66;4979395;28;20119;-76
2023/05/12 03:52:37;;;;;;;38.85;14.02;;;;;;;10.39;100.00;101763.44;4978218;28;20491;-77
2023/05/12 03:55:21;;;;;;;41.60;15.60;;;;;;;10.42;100.00;101775.72;4978958;28;20072;-78
2023/05/12 03:58:06;;;;;;;41.53;15.98;;;;;;;10.42;100.00;101776.59;4979460;28;20065;-77
2023/05/12 04:00:50;;;;;;;37.17;15.02;;;;;;;10.46;100.00;101766.78;4978295;28;20068;-77
2023/05/12 04:03:34;;;;;;;40.30;14.68;;;;;;;10.48;100.00;101769.38;4992487;28;20449;-77
2023/05/12 04:06:18;;;;;;;50.03;15.32;;;;;;;10.52;100.00;101779.84;4979020;28;20159;-77
2023/05/12 04:09:02;;;;;;;42.75;15.98;;;;;;;10.54;100.00;101777.16;4979746;28;20077;-77
2023/05/12 04:11:46;;;;;;;42.17;16.10;;;;;;;10.57;100.00;101782.38;4981055;28;20134;-77
2023/05/12 04:14:31;;;;;;;42.70;15.32;;;;;;;10.59;100.00;101776.06;4984671;28;20061;-77
2023/05/12 04:17:17;;;;;;;37.15;15.98;;;;;;;10.60;100.00;101784.91;4985803;28;20115;-77
2023/05/12 04:20:01;;;;;;;35.42;15.60;;;;;;;10.62;100.00;101790.16;4982692;28;20048;-77
2023/05/12 04:22:46;;;;;;;41.92;16.88;;;;;;;10.64;100.00;101788.31;4983373;28;20177;-77
2023/05/12 04:25:30;;;;;;;45.72;17.23;;;;;;;10.68;100.00;101789.97;4984783;28;20161;-77
2023/05/12 04:28:14;;;;;;;48.28;17.45;;;;;;;10.68;100.00;101790.81;4983284;28;20188;-77
2023/05/12 04:31:05;;;;;;;44.90;17.38;;;;;;;10.71;100.00;101798.69;4984792;28;20107;-77
2023/05/12 04:33:50;;;;;;;43.70;17.25;;;;;;;10.73;100.00;101791.56;4982405;28;20084;-75
2023/05/12 04:36:34;;;;;;;45.85;17.45;;;;;;;10.75;100.00;101799.47;4982689;28;20057;-75
2023/05/12 04:39:18;;;;;;;44.50;17.30;;;;;;;10.79;100.00;101797.59;4985922;28;20099;-75
2023/05/12 04:42:03;;;;;;;48.72;18.30;;;;;;;10.80;100.00;101799.31;4982435;28;20060;-76
2023/05/12 04:44:47;;;;;;;49.38;18.20;;;;;;;10.78;100.00;101807.31;4982402;28;20068;-75
2023/05/12 04:47:31;;;;;;;47.78;17.38;;;;;;;10.80;100.00;101815.22;4981742;28;20080;-75
2023/05/12 04:50:15;;;;;;;46.42;16.98;;;;;;;10.81;100.00;101817.81;4982556;28;20057;-75
2023/05/12 04:52:59;;;;;;;44.88;17.13;;;;;;;10.84;100.00;101811.56;4982577;28;20523;-75
2023/05/12 04:55:44;;;;;;;47.55;16.25;;;;;;;10.87;100.00;101806.16;4987241;28;20144;-76
2023/05/12 04:58:29;;;;;;;41.25;16.98;;;;;;;10.88;100.00;101817.63;4981464;28;20056;-75
2023/05/12 05:01:12;;;;;;;44.88;16.63;;;;;;;10.91;100.00;101814.88;4980786;28;20115;-76
2023/05/12 05:03:57;;;;;;;40.72;16.20;;;;;;;10.90;100.00;101816.63;4982410;28;20100;-75
2023/05/12 05:06:40;;;;;;;44.85;15.90;;;;;;;10.92;100.00;101816.59;4981377;28;20089;-76
2023/05/12 05:09:25;;;;;;;39.15;16.67;;;;;;;10.94;100.00;101820.94;4982166;28;20053;-76
2023/05/12 05:12:09;;;;;;;38.33;16.02;;;;;;;10.94;100.00;101823.59;4982923;28;20752;-76
2023/05/12 05:14:53;;;;;;;38.63;16.48;;;;;;;10.97;100.00;101827.94;4982412;28;20592;-75
2023/05/12 05:17:37;;;;;;;46.72;16.42;;;;;;;10.96;100.00;101834.16;4981860;28;20052;-76
2023/05/12 05:20:21;;;;;;;36.80;15.60;;;;;;;10.98;100.00;101833.19;4986303;28;20057;-75
2023/05/12 05:23:05;;;;;;;38.10;15.98;;;;;;;11.02;100.00;101835.72;4982550;28;20505;-75
2023/05/12 05:25:50;;;;;;;39.05;15.50;;;;;;;11.05;100.00;101835.66;4982481;28;20232;-75
2023/05/12 05:28:35;;;;;;;37.97;16.42;;;;;;;11.07;100.00;101839.09;4996217;28;20051;-75
2023/05/12 05:31:19;;;;;;;42.30;16.50;;;;;;;11.07;100.00;101841.75;4993779;28;20045;-75
2023/05/12 05:34:03;;;;;;;45.72;16.88;;;;;;;11.13;100.00;101836.25;4981806;28;20444;-75
2023/05/12 05:36:48;;;;;;;45.30;16.80;;;;;;;11.16;100.00;101837.94;4991297;28;20127;-76
2023/05/12 05:39:32;;;;;;;43.25;16.52;;;;;;;11.18;100.00;101836.13;4968400;28;20117;-75
2023/05/12 05:42:17;;;;;;;40.25;15.90;;;;;;;11.21;100.00;101836.00;4980871;28;20077;-75
2023/05/12 05:45:01;;;;;;;44.80;16.92;;;;;;;11.20;100.00;101840.44;4982123;28;20512;-75
2023/05/12 05:47:48;;;;;;;44.90;17.40;;;;;;;11.22;100.00;101843.91;4981917;28;20057;-75
2023/05/12 05:50:32;;;;;;;46.15;17.10;;;;;;;11.25;100.00;101842.94;4981875;28;20163;-76
2023/05/12 05:53:17;;;;;;;40.65;15.60;;;;;;;11.25;100.00;101845.59;4983554;28;20057;-75
2023/05/12 05:56:01;;;;;;;40.58;16.55;;;;;;;11.26;100.00;101852.63;4982114;28;20057;-75
2023/05/12 05:58:45;;;;;;;39.85;16.80;;;;;;;11.30;100.00;101856.03;4982758;28;20052;-76
2023/05/12 06:01:30;;;;;;;38.60;17.38;;;;;;;11.36;100.00;101859.38;4983568;28;20413;-76
2023/05/12 06:04:14;;;;;;;44.38;17.35;;;;;;;11.41;100.00;101856.56;4981255;28;20061;-75
2023/05/12 06:06:58;;;;;;;38.63;16.00;;;;;;;11.46;100.00;101859.06;4981167;28;20806;-76
2023/05/12 06:09:42;;;;;;;37.65;16.13;;;;;;;11.48;100.00;101860.75;4980815;28;20621;-76
2023/05/12 06:12:26;;;;;;;42.00;17.42;;;;;;;11.51;100.00;101860.63;4982827;28;20049;-76
2023/05/12 06:15:10;;;;;;;36.60;16.08;;;;;;;11.54;100.00;101873.81;4982492;28;20049;-76
2023/05/12 06:17:54;;;;;;;38.00;17.10;;;;;;;11.58;100.00;101876.34;4983222;28;20052;-76
2023/05/12 06:20:37;;;;;;;34.75;16.60;;;;;;;11.60;100.00;101878.03;4978991;28;20449;-76
2023/05/12 06:23:22;;;;;;;42.63;17.27;;;;;;;11.66;100.00;101879.63;4978538;28;20044;-73
2023/05/12 06:26:06;;;;;;;42.33;17.35;;;;;;;11.72;100.00;101882.06;4977337;28;20806;-76
2023/05/12 06:28:50;;;;;;;36.72;16.70;;;;;;;11.72;100.00;101883.88;4979581;28;20109;-76
2023/05/12 06:31:34;;;;;;;37.05;16.67;;;;;;;11.75;100.00;101883.75;4980016;28;20096;-76
2023/05/12 06:34:18;;;;;;;36.42;17.65;;;;;;;11.75;100.00;101887.28;4978318;28;20053;-76
2023/05/12 06:37:02;;;;;;;42.70;18.38;;;;;;;11.79;100.00;101891.56;4978098;28;20065;-76
2023/05/12 06:39:47;;;;;;;40.53;16.55;;;;;;;11.80;100.00;101888.00;4975599;28;20096;-76
2023/05/12 06:42:30;;;;;;;40.22;17.23;;;;;;;11.79;100.00;101891.56;4961196;28;20076;-77
2023/05/12 06:45:15;;;;;;;36.33;16.27;;;;;;;11.84;100.00;101901.16;4974815;28;21937;-78
2023/05/12 06:48:00;;;;;;;37.90;16.98;;;;;;;11.85;100.00;101898.44;4974820;28;20774;-82
2023/05/12 06:50:44;;;;;;;36.53;15.77;;;;;;;11.90;100.00;101908.91;4974340;28;20079;-75
2023/05/12 06:53:29;;;;;;;34.28;16.88;;;;;;;11.95;100.00;101899.00;4977603;28;20061;-75
2023/05/12 06:56:15;;;;;;;35.15;16.65;;;;;;;11.98;100.00;101904.19;4962783;28;20726;-76
2023/05/12 06:59:01;;;;;;;36.35;16.95;;;;;;;12.02;100.00;101903.19;4978267;28;20117;-76
2023/05/12 07:01:48;;;;;;;37.00;15.70;;;;;;;12.08;100.00;101908.31;4975722;28;20140;-76
2023/05/12 07:04:32;;;;;;;35.40;15.98;;;;;;;12.15;100.00;101932.84;4977291;28;21428;-78
2023/05/12 07:07:16;;;;;;;33.25;15.75;;;;;;;12.18;100.00;101934.50;4980209;28;21976;-74
2023/05/12 07:10:00;;;;;;;33.80;15.63;;;;;;;12.26;100.00;101936.91;4988895;28;20100;-74
2023/05/12 07:12:47;;;;;;;35.45;15.95;;;;;;;12.34;100.00;101919.78;4974864;28;20053;-74
2023/05/12 07:15:31;;;;;;;39.53;17.27;;;;;;;12.40;100.00;101912.50;4978132;28;20049;-74
2023/05/12 07:18:15;;;;;;;34.88;16.60;;;;;;;12.49;100.00;101918.34;4974143;28;20116;-76
2023/05/12 07:20:59;;;;;;;32.38;15.77;;;;;;;12.56;100.00;101916.34;4976053;28;20049;-74
2023/05/12 07:23:43;;;;;;;35.70;16.00;;;;;;;12.65;100.00;101927.56;4975009;28;20666;-81
2023/05/12 07:26:28;;;;;;;30.80;15.05;;;;;;;12.76;100.00;101936.00;4974422;28;20053;-75
2023/05/12 07:29:12;;;;;;;27.73;16.00;;;;;;;12.84;100.00;101927.72;4978074;28;20049;-73
2023/05/12 07:31:59;;;;;;;31.00;16.10;;;;;;;12.94;100.00;101928.25;4977679;28;20674;-73
2023/05/12 07:34:43;;;;;;;27.67;16.30;;;;;;;13.00;100.00;101930.66;4975086;28;20080;-73
2023/05/12 07:37:27;;;;;;;27.90;14.25;;;;;;;13.07;100.00;101932.16;4973807;28;20115;-73
2023/05/12 07:40:11;;;;;;;28.98;15.20;;;;;;;13.13;100.00;101936.41;4974490;28;20125;-73
2023/05/12 07:42:58;;;;;;;28.38;15.50;;;;;;;13.16;100.00;101947.78;4974636;28;20119;-74
2023/05/12 07:45:43;;;;;;;27.25;15.02;;;;;;;13.24;100.00;101936.81;4974324;28;20048;-73
2023/05/12 07:48:28;;;;;;;25.55;15.02;;;;;;;13.30;100.00;101927.75;4985744;28;20054;-74
2023/05/12 07:51:22;;;;;;;28.95;15.25;;;;;;;13.37;100.00;101934.56;4975458;28;20048;-73
2023/05/12 07:54:07;;;;;;;27.63;15.32;;;;;;;13.42;100.00;101937.88;4975828;28;20120;-73
2023/05/12 07:56:51;;;;;;;26.80;14.30;;;;;;;13.53;100.00;101947.28;4975696;28;20053;-73
2023/05/12 07:59:35;;;;;;;27.20;14.70;;;;;;;13.55;100.00;101942.75;4974954;28;20057;-72
2023/05/12 08:02:19;;;;;;;24.55;14.77;;;;;;;13.57;100.00;101941.75;4978449;28;20057;-74
2023/05/12 08:05:04;;;;;;;23.88;14.45;;;;;;;13.62;100.00;101936.25;4977581;28;20120;-73
2023/05/12 08:07:48;;;;;;;21.92;13.98;;;;;;;13.64;100.00;101944.16;4976686;28;20037;-73
2023/05/12 08:10:32;;;;;;;23.05;14.18;;;;;;;13.63;100.00;101943.31;4977516;28;20109;-74
2023/05/12 08:13:16;;;;;;;27.55;14.25;;;;;;;13.67;100.00;101944.91;4973357;28;20169;-73
2023/05/12 08:16:00;;;;;;;23.25;14.57;;;;;;;13.70;100.00;101949.25;4976718;28;20263;-73
2023/05/12 08:18:47;;;;;;;22.63;13.90;;;;;;;13.74;100.00;101944.66;4974101;28;20153;-75
2023/05/12 08:21:32;;;;;;;24.67;15.13;;;;;;;13.77;100.00;101947.22;4979539;28;20170;-75
2023/05/12 08:24:16;;;;;;;23.50;14.32;;;;;;;13.83;100.00;101960.25;4976081;28;20111;-75
2023/05/12 08:27:00;;;;;;;24.83;14.98;;;;;;;13.84;100.00;101957.53;4974995;28;20085;-76
2023/05/12 08:29:44;;;;;;;28.63;15.15;;;;;;;13.86;100.00;101962.78;4977741;28;20131;-75
2023/05/12 08:32:28;;;;;;;26.95;16.00;;;;;;;13.89;100.00;101961.78;4977148;28;20101;-76
2023/05/12 08:35:13;;;;;;;23.35;15.10;;;;;;;13.91;100.00;101957.25;4978388;28;20096;-76
2023/05/12 08:37:58;;;;;;;26.23;15.35;;;;;;;13.96;100.00;101955.28;4975406;28;20565;-76
2023/05/12 08:41:18;;;;;;;24.70;15.35;;;;;;;14.01;100.00;101958.63;4975577;28;20270;-76
2023/05/12 08:44:03;;;;;;;22.85;14.30;;;;;;;14.09;100.00;101963.59;4977022;28;20611;-76
2023/05/12 08:46:48;;;;;;;24.63;15.07;;;;;;;14.16;100.00;101964.22;4979184;28;20116;-76
2023/05/12 08:49:34;;;;;;;24.92;15.70;;;;;;;14.28;100.00;101963.72;4976417;28;20185;-76
2023/05/12 08:52:21;;;;;;;28.75;16.08;;;;;;;14.41;100.00;101966.69;4975057;28;20140;-76
2023/05/12 08:55:06;;;;;;;27.50;16.58;;;;;;;14.58;100.00;101963.28;4977779;28;20049;-76
2023/05/12 08:57:51;;;;;;;26.30;16.42;;;;;;;14.72;100.00;101965.34;4990247;28;20105;-75
2023/05/12 09:00:37;;;;;;;26.77;15.52;;;;;;;14.90;100.00;101965.44;4978109;28;20052;-76
2023/05/12 09:03:22;;;;;;;23.83;15.57;;;;;;;15.08;100.00;101961.06;4980483;28;20041;-75
2023/05/12 09:06:07;;;;;;;24.83;15.15;;;;;;;15.27;100.00;101961.06;4976055;28;20156;-82
2023/05/12 09:08:51;;;;;;;25.30;15.18;;;;;;;15.47;100.00;101962.75;4977271;28;20049;-84
2023/05/12 09:11:38;;;;;;;23.63;14.13;;;;;;;15.70;100.00;101967.91;4976252;28;20064;-84
2023/05/12 09:14:27;;;;;;;24.40;14.30;;;;;;;15.98;100.00;101969.25;4975505;28;20064;-86
2023/05/12 09:17:11;;;;;;;20.55;14.07;;;;;;;16.25;100.00;101974.97;4976887;28;20080;-84
2023/05/12 09:19:55;;;;;;;24.70;14.60;;;;;;;16.48;100.00;101964.91;4977012;28;20052;-84
2023/05/12 09:22:40;;;;;;;22.10;13.63;;;;;;;16.74;100.00;101967.13;4980839;28;20084;-83
2023/05/12 09:25:27;;;;;;;19.63;12.85;;;;;;;16.93;100.00;101980.34;4965832;28;20100;-82
2023/05/12 09:28:11;;;;;;;19.98;12.60;;;;;;;17.01;100.00;101977.25;4977672;28;20568;-83
2023/05/12 09:30:58;;;;;;;17.67;12.48;;;;;;;17.10;100.00;101980.34;4976354;28;20141;-77
2023/05/12 09:33:42;;;;;;;19.52;12.77;;;;;;;17.10;100.00;101984.81;4978148;28;20065;-77
2023/05/12 09:36:29;;;;;;;19.80;12.88;;;;;;;17.09;100.00;101981.28;4976950;28;20156;-77
2023/05/12 09:39:18;;;;;;;19.15;12.77;;;;;;;17.17;100.00;101988.88;4977927;28;20172;-77
2023/05/12 09:42:03;;;;;;;18.50;13.27;;;;;;;17.23;100.00;101991.19;4977847;28;20107;-77
2023/05/12 09:44:48;;;;;;;21.77;14.50;;;;;;;17.29;100.00;101990.03;4975498;28;20069;-74
2023/05/12 09:47:39;;;;;;;22.88;13.85;;;;;;;17.35;100.00;101996.81;4978844;28;20164;-77
2023/05/12 09:50:24;;;;;;;20.25;14.25;;;;;;;17.40;100.00;101997.44;4977419;28;21142;-77
2023/05/12 09:53:08;;;;;;;21.10;14.27;;;;;;;17.43;100.00;101997.25;4975920;28;20166;-76
2023/05/12 09:55:52;;;;;;;21.13;14.48;;;;;;;17.40;100.00;101985.84;4976506;28;20065;-77
2023/05/12 09:58:43;;;;;;;20.90;14.10;;;;;;;17.47;100.00;101998.81;4988704;28;20096;-77
2023/05/12 10:01:27;;;;;;;19.00;13.60;;;;;;;17.59;100.00;101999.09;4975595;28;20065;-77
2023/05/12 10:04:12;;;;;;;19.85;13.70;;;;;;;17.67;100.00;102001.31;4978101;28;20052;-77
2023/05/12 10:06:57;;;;;;;20.52;14.65;;;;;;;17.73;100.00;102004.50;4986902;28;21516;-77
2023/05/12 10:09:43;;;;;;;21.90;15.00;;;;;;;17.86;100.00;101998.44;4967753;28;20049;-77
2023/05/12 10:12:27;;;;;;;20.77;14.35;;;;;;;17.91;100.00;101999.00;4974107;28;21650;-75
2023/05/12 10:15:15;;;;;;;21.40;14.05;;;;;;;17.99;100.00;101990.53;4977159;28;20210;-74
2023/05/12 10:17:59;;;;;;;21.05;14.13;;;;;;;18.09;100.00;101999.78;4968352;28;20048;-77
2023/05/12 10:20:44;;;;;;;22.77;14.05;;;;;;;18.17;100.00;101999.34;4979794;28;20104;-74
2023/05/12 10:23:31;;;;;;;19.45;13.85;;;;;;;18.25;100.00;101991.69;4977098;28;20112;-72
2023/05/12 10:26:16;;;;;;;22.38;14.18;;;;;;;18.32;100.00;101993.03;4978619;28;20049;-72
2023/05/12 10:29:01;;;;;;;17.23;12.57;;;;;;;18.37;100.00;101987.44;4974767;28;20057;-77
2023/05/12 10:31:45;;;;;;;18.75;12.90;;;;;;;18.32;100.00;101994.88;4975107;28;20093;-77
2023/05/12 10:34:32;;;;;;;20.15;13.73;;;;;;;18.28;100.00;101990.66;4976294;28;20048;-77
2023/05/12 10:37:16;;;;;;;20.65;13.98;;;;;;;18.29;100.00;101998.59;4977969;28;20104;-77
2023/05/12 10:40:03;;;;;;;22.60;15.07;;;;;;;18.40;100.00;101999.75;4978599;28;20052;-76
2023/05/12 10:42:50;;;;;;;21.70;14.73;;;;;;;18.50;100.00;101994.69;4989203;28;20096;-76
2023/05/12 10:45:36;;;;;;;20.48;14.25;;;;;;;18.61;100.00;102002.13;4978221;28;20068;-76
2023/05/12 10:48:20;;;;;;;17.55;11.75;;;;;;;18.72;100.00;101995.13;4975552;28;20101;-76
2023/05/12 10:51:09;;;;;;;15.43;11.57;;;;;;;18.81;100.00;101993.69;4975245;28;20092;-75
2023/05/12 10:54:01;;;;;;;17.85;12.05;;;;;;;18.91;100.00;101990.41;4974623;28;20694;-77
2023/05/12 10:56:45;;;;;;;14.27;10.90;;;;;;;18.96;100.00;101991.00;4974763;28;21019;-77
2023/05/12 10:59:30;;;;;;;14.93;10.82;;;;;;;19.02;100.00;101996.00;4976701;28;20063;-75
2023/05/12 11:02:15;;;;;;;14.18;10.77;;;;;;;19.10;100.00;101993.69;4971924;28;21221;-76
2023/05/12 11:05:02;;;;;;;15.10;9.60;;;;;;;19.16;100.00;101989.75;4989104;28;20065;-77
2023/05/12 11:07:48;;;;;;;14.95;10.52;;;;;;;19.27;100.00;101995.31;4975986;28;20532;-77
2023/05/12 11:10:33;;;;;;;14.63;10.55;;;;;;;19.27;100.00;101992.63;4982033;28;20119;-78
2023/05/12 11:13:18;;;;;;;16.00;11.43;;;;;;;19.25;100.00;101991.00;4975130;28;20076;-76
2023/05/12 11:16:03;;;;;;;16.35;9.82;;;;;;;19.27;100.00;101989.06;4979051;28;21443;-76
2023/05/12 11:18:47;;;;;;;14.05;10.30;;;;;;;19.33;100.00;101988.66;4977293;28;21204;-77
2023/05/12 11:21:32;;;;;;;14.32;10.20;;;;;;;19.41;100.00;101990.88;4975967;28;20124;-79
2023/05/12 11:24:15;;;;;;;13.38;10.00;;;;;;;19.38;100.00;101983.00;4988602;28;20128;-77
2023/05/12 11:26:59;;;;;;;15.85;9.38;;;;;;;19.43;100.00;101988.09;4975326;28;20104;-76
2023/05/12 11:29:45;;;;;;;11.90;8.45;;;;;;;19.50;100.00;101974.13;4973094;28;20228;-77
2023/05/12 11:32:30;;;;;;;14.35;10.95;;;;;;;19.61;100.00;101981.47;4987249;28;20138;-75
2023/05/12 11:35:16;;;;;;;14.15;10.80;;;;;;;19.64;100.00;101983.97;4975216;28;20299;-75
2023/05/12 11:38:01;;;;;;;14.55;10.82;;;;;;;19.65;100.00;101982.13;4975514;28;20143;-74
2023/05/12 11:40:47;;;;;;;13.02;10.05;;;;;;;19.64;100.00;101978.59;4988509;28;20099;-79
2023/05/12 11:43:31;;;;;;;14.35;10.50;;;;;;;19.65;100.00;101976.75;4975718;28;21117;-78
2023/05/12 11:46:28;;;;;;;12.82;9.70;;;;;;;19.67;100.00;101977.56;4977664;28;20105;-83
2023/05/12 11:49:19;;;;;;;12.90;9.18;;;;;;;19.65;100.00;101990.19;4965864;28;20867;-81
2023/05/12 11:52:04;;;;;;;14.75;10.38;;;;;;;19.64;100.00;101988.47;4976731;28;20128;-80
2023/05/12 11:54:59;;;;;;;14.02;9.50;;;;;;;19.65;100.00;101988.38;4976145;28;20139;-80
2023/05/12 11:57:54;;;;;;;11.65;8.98;;;;;;;19.69;100.00;101989.03;4988869;28;20397;-79
2023/05/12 12:00:38;;;;;;;8.35;6.80;;;;;;;19.58;100.00;101986.19;4974536;28;20061;-80
2023/05/12 12:03:25;;;;;;;8.18;6.60;;;;;;;19.56;100.00;101985.44;4976583;28;20185;-79
2023/05/12 12:06:09;;;;;;;6.75;5.20;;;;;;;19.60;100.00;101985.13;4972539;28;20136;-79
2023/05/12 12:09:01;;;;;;;7.97;5.50;;;;;;;19.66;100.00;101982.03;4969633;28;20053;-80
2023/05/12 12:11:45;;;;;;;7.28;5.68;;;;;;;19.77;100.00;101985.84;4980198;28;20734;-79
2023/05/12 12:14:30;;;;;;;9.38;6.68;;;;;;;19.87;100.00;101992.31;4975798;28;20054;-79
2023/05/12 12:17:17;;;;;;;9.50;7.53;;;;;;;19.95;100.00;101987.31;4967562;28;20044;-84
2023/05/12 12:20:02;;;;;;;10.30;6.90;;;;;;;19.99;100.00;102000.56;4976791;28;20145;-83
2023/05/12 12:22:46;;;;;;;9.35;7.28;;;;;;;19.91;100.00;101993.84;4975272;28;20100;-84
2023/05/12 12:25:30;;;;;;;9.05;7.00;;;;;;;19.90;100.00;101992.13;4975200;28;20746;-83
2023/05/12 12:28:22;;;;;;;10.05;6.65;;;;;;;19.95;100.00;101989.16;4974419;28;21852;-82